Gretna, South Dakota
Current Conditions -  °F | °C
As of 10:53 AM on Monday 22 Dec 2014 (Local Time) from KABR Reporting Station
Light Snow Light Snow  
Wind Chill: 33°   Ceiling: 500
Heat Index: 33°   Visibility: 1mi
Dew Point: 32°   Wind: 3mph
Humidity: 96%   Direction: 110°ESE
Pressure: 29.44"   Gusts: NA
Location:  45.4011°N, 99.3273°W
Report Text: KABR 221653Z AUTO 11003KT 1SM -SN BR OVC005 01/00 A2944 RMK AO2 SLP980 P0002 T00060000
Loading
Personal Weather Stations






























Interactive Weather Map New forecast layout! Learn more

10-Day Weather Forecast

Advertisements
Track Severe Weather on mobile